sensor_id;sensor_type;location;lat;lon;timestamp;pressure;altitude;pressure_sealevel;temperature;humidity
38718;BME280;24468;52.128;9.278;2023-07-09T00:01:16;101010.13;;;21.30;100.00
38718;BME280;24468;52.128;9.278;2023-07-09T00:03:46;101006.88;;;21.02;100.00
38718;BME280;24468;52.128;9.278;2023-07-09T00:06:17;101002.66;;;21.09;100.00
38718;BME280;24468;52.128;9.278;2023-07-09T00:08:45;101009.97;;;20.86;100.00
38718;BME280;24468;52.128;9.278;2023-07-09T00:11:15;101010.47;;;20.69;100.00
38718;BME280;24468;52.128;9.278;2023-07-09T00:13:40;101008.88;;;20.42;100.00
38718;BME280;24468;52.128;9.278;2023-07-09T00:16:19;101020.91;;;20.29;100.00
38718;BME280;24468;52.128;9.278;2023-07-09T00:18:46;101017.47;;;20.38;100.00
38718;BME280;24468;52.128;9.278;2023-07-09T00:21:15;101012.03;;;20.49;100.00
38718;BME280;24468;52.128;9.278;2023-07-09T00:23:41;101015.22;;;20.43;100.00
38718;BME280;24468;52.128;9.278;2023-07-09T00:26:12;101021.88;;;20.52;100.00
38718;BME280;24468;52.128;9.278;2023-07-09T00:28:40;101024.63;;;20.52;100.00
38718;BME280;24468;52.128;9.278;2023-07-09T00:31:11;101024.41;;;20.55;100.00
38718;BME280;24468;52.128;9.278;2023-07-09T00:33:38;101021.28;;;20.59;100.00
38718;BME280;24468;52.128;9.278;2023-07-09T00:36:13;101023.03;;;20.60;100.00
38718;BME280;24468;52.128;9.278;2023-07-09T00:38:39;101027.66;;;20.60;100.00
38718;BME280;24468;52.128;9.278;2023-07-09T00:41:15;101025.78;;;20.60;100.00
38718;BME280;24468;52.128;9.278;2023-07-09T00:43:44;101022.94;;;20.38;100.00
38718;BME280;24468;52.128;9.278;2023-07-09T00:48:52;101014.88;;;20.48;100.00
38718;BME280;24468;52.128;9.278;2023-07-09T00:51:21;101015.59;;;20.38;100.00
38718;BME280;24468;52.128;9.278;2023-07-09T00:53:51;101017.69;;;19.99;100.00
38718;BME280;24468;52.128;9.278;2023-07-09T00:56:30;101015.44;;;20.05;100.00
38718;BME280;24468;52.128;9.278;2023-07-09T00:58:59;101014.75;;;20.14;100.00
38718;BME280;24468;52.128;9.278;2023-07-09T01:01:29;101008.75;;;19.85;100.00
38718;BME280;24468;52.128;9.278;2023-07-09T01:03:57;101011.88;;;19.80;100.00
38718;BME280;24468;52.128;9.278;2023-07-09T01:06:37;101010.69;;;19.95;100.00
38718;BME280;24468;52.128;9.278;2023-07-09T01:09:06;101015.25;;;20.08;100.00
38718;BME280;24468;52.128;9.278;2023-07-09T01:11:33;101018.47;;;20.13;100.00
38718;BME280;24468;52.128;9.278;2023-07-09T01:14:02;101017.78;;;20.22;100.00
38718;BME280;24468;52.128;9.278;2023-07-09T01:16:58;101027.09;;;20.19;100.00
38718;BME280;24468;52.128;9.278;2023-07-09T01:19:28;101024.47;;;20.18;100.00
38718;BME280;24468;52.128;9.278;2023-07-09T01:21:59;101031.59;;;20.20;100.00
38718;BME280;24468;52.128;9.278;2023-07-09T01:27:19;101028.19;;;20.06;100.00
38718;BME280;24468;52.128;9.278;2023-07-09T01:29:46;101026.47;;;20.16;100.00
38718;BME280;24468;52.128;9.278;2023-07-09T01:32:19;101021.97;;;20.15;100.00
38718;BME280;24468;52.128;9.278;2023-07-09T01:34:52;101018.81;;;19.97;100.00
38718;BME280;24468;52.128;9.278;2023-07-09T01:37:25;101019.03;;;19.94;100.00
38718;BME280;24468;52.128;9.278;2023-07-09T01:39:52;101017.25;;;19.69;100.00
38718;BME280;24468;52.128;9.278;2023-07-09T01:42:21;101018.06;;;19.58;100.00
38718;BME280;24468;52.128;9.278;2023-07-09T01:44:49;101014.94;;;19.63;100.00
38718;BME280;24468;52.128;9.278;2023-07-09T01:47:16;101017.53;;;20.25;100.00
38718;BME280;24468;52.128;9.278;2023-07-09T01:49:42;101022.41;;;20.57;100.00
38718;BME280;24468;52.128;9.278;2023-07-09T01:52:13;101024.31;;;20.08;100.00
38718;BME280;24468;52.128;9.278;2023-07-09T01:54:39;101016.97;;;19.85;100.00
38718;BME280;24468;52.128;9.278;2023-07-09T01:57:28;101013.41;;;19.35;100.00
38718;BME280;24468;52.128;9.278;2023-07-09T02:00:05;101020.13;;;19.54;100.00
38718;BME280;24468;52.128;9.278;2023-07-09T02:02:31;101017.81;;;19.61;100.00
38718;BME280;24468;52.128;9.278;2023-07-09T02:04:58;101007.75;;;19.62;100.00
38718;BME280;24468;52.128;9.278;2023-07-09T02:07:24;101014.94;;;19.63;100.00
38718;BME280;24468;52.128;9.278;2023-07-09T02:09:51;101017.81;;;19.61;100.00
38718;BME280;24468;52.128;9.278;2023-07-09T02:12:17;101008.59;;;19.75;100.00
38718;BME280;24468;52.128;9.278;2023-07-09T02:14:44;101009.13;;;19.80;100.00
38718;BME280;24468;52.128;9.278;2023-07-09T02:17:12;101013.84;;;19.78;100.00
38718;BME280;24468;52.128;9.278;2023-07-09T02:19:38;101014.41;;;19.58;100.00
38718;BME280;24468;52.128;9.278;2023-07-09T02:22:05;101008.22;;;19.55;100.00
38718;BME280;24468;52.128;9.278;2023-07-09T02:24:31;101020.03;;;19.56;100.00
38718;BME280;24468;52.128;9.278;2023-07-09T02:27:00;101020.00;;;19.69;100.00
38718;BME280;24468;52.128;9.278;2023-07-09T02:29:28;101020.03;;;19.56;100.00
38718;BME280;24468;52.128;9.278;2023-07-09T02:31:56;101019.59;;;19.49;100.00
38718;BME280;24468;52.128;9.278;2023-07-09T02:34:25;101016.53;;;19.41;100.00
38718;BME280;24468;52.128;9.278;2023-07-09T02:36:52;101013.81;;;19.41;100.00
38718;BME280;24468;52.128;9.278;2023-07-09T02:39:18;101014.13;;;19.49;100.00
38718;BME280;24468;52.128;9.278;2023-07-09T02:41:44;101009.47;;;19.63;100.00
38718;BME280;24468;52.128;9.278;2023-07-09T02:44:10;101011.91;;;19.67;100.00
38718;BME280;24468;52.128;9.278;2023-07-09T02:46:36;101017.25;;;19.69;100.00
38718;BME280;24468;52.128;9.278;2023-07-09T02:49:04;101011.09;;;19.78;100.00
38718;BME280;24468;52.128;9.278;2023-07-09T02:51:31;101017.50;;;19.66;100.00
38718;BME280;24468;52.128;9.278;2023-07-09T02:53:59;101012.13;;;19.64;100.00
38718;BME280;24468;52.128;9.278;2023-07-09T02:56:24;101022.31;;;19.49;100.00
38718;BME280;24468;52.128;9.278;2023-07-09T02:58:50;101018.31;;;19.42;100.00
38718;BME280;24468;52.128;9.278;2023-07-09T03:01:16;101013.00;;;19.28;100.00
38718;BME280;24468;52.128;9.278;2023-07-09T03:03:42;101019.09;;;19.31;100.00
38718;BME280;24468;52.128;9.278;2023-07-09T03:06:09;101021.28;;;19.39;100.00
38718;BME280;24468;52.128;9.278;2023-07-09T03:08:35;101024.44;;;19.46;100.00
38718;BME280;24468;52.128;9.278;2023-07-09T03:11:09;101019.19;;;19.30;100.00
38718;BME280;24468;52.128;9.278;2023-07-09T03:13:35;101017.66;;;19.39;100.00
38718;BME280;24468;52.128;9.278;2023-07-09T03:16:00;101017.59;;;19.15;100.00
38718;BME280;24468;52.128;9.278;2023-07-09T03:18:26;101023.63;;;19.20;100.00
38718;BME280;24468;52.128;9.278;2023-07-09T03:20:51;101024.91;;;19.27;100.00
38718;BME280;24468;52.128;9.278;2023-07-09T03:23:17;101025.91;;;19.26;100.00
38718;BME280;24468;52.128;9.278;2023-07-09T03:25:43;101029.09;;;19.20;100.00
38718;BME280;24468;52.128;9.278;2023-07-09T03:28:11;101028.28;;;19.30;100.00
38718;BME280;24468;52.128;9.278;2023-07-09T03:30:46;101034.75;;;19.29;100.00
38718;BME280;24468;52.128;9.278;2023-07-09T03:33:15;101034.41;;;19.34;100.00
38718;BME280;24468;52.128;9.278;2023-07-09T03:35:42;101030.50;;;19.25;100.00
38718;BME280;24468;52.128;9.278;2023-07-09T03:38:09;101032.66;;;19.33;100.00
38718;BME280;24468;52.128;9.278;2023-07-09T03:40:36;101034.50;;;19.45;100.00
38718;BME280;24468;52.128;9.278;2023-07-09T03:43:04;101039.81;;;19.60;100.00
38718;BME280;24468;52.128;9.278;2023-07-09T03:45:32;101037.72;;;19.63;100.00
38718;BME280;24468;52.128;9.278;2023-07-09T03:47:58;101027.47;;;19.67;100.00
38718;BME280;24468;52.128;9.278;2023-07-09T03:50:24;101036.53;;;19.67;100.00
38718;BME280;24468;52.128;9.278;2023-07-09T03:52:50;101035.31;;;19.71;100.00
38718;BME280;24468;52.128;9.278;2023-07-09T03:55:15;101033.97;;;19.77;100.00
38718;BME280;24468;52.128;9.278;2023-07-09T03:57:41;101042.09;;;19.79;100.00
38718;BME280;24468;52.128;9.278;2023-07-09T04:00:07;101033.47;;;19.72;100.00
38718;BME280;24468;52.128;9.278;2023-07-09T04:02:40;101034.47;;;19.58;100.00
38718;BME280;24468;52.128;9.278;2023-07-09T04:05:07;101035.75;;;19.78;100.00
38718;BME280;24468;52.128;9.278;2023-07-09T04:07:36;101037.84;;;19.98;100.00
38718;BME280;24468;52.128;9.278;2023-07-09T04:10:01;101035.28;;;20.08;100.00
38718;BME280;24468;52.128;9.278;2023-07-09T04:12:27;101042.91;;;20.16;100.00
38718;BME280;24468;52.128;9.278;2023-07-09T04:14:53;101037.47;;;20.27;100.00
38718;BME280;24468;52.128;9.278;2023-07-09T04:17:18;101038.16;;;20.42;100.00
38718;BME280;24468;52.128;9.278;2023-07-09T04:19:44;101045.78;;;20.50;100.00
38718;BME280;24468;52.128;9.278;2023-07-09T04:22:16;101040.84;;;20.55;100.00
38718;BME280;24468;52.128;9.278;2023-07-09T04:24:43;101040.88;;;20.66;100.00
38718;BME280;24468;52.128;9.278;2023-07-09T04:27:09;101037.63;;;20.72;100.00
38718;BME280;24468;52.128;9.278;2023-07-09T04:29:35;101032.38;;;20.58;100.00
38718;BME280;24468;52.128;9.278;2023-07-09T04:32:02;101031.53;;;20.33;100.00
38718;BME280;24468;52.128;9.278;2023-07-09T04:34:28;101026.47;;;20.16;100.00
38718;BME280;24468;52.128;9.278;2023-07-09T04:36:53;101025.66;;;20.27;100.00
38718;BME280;24468;52.128;9.278;2023-07-09T04:39:19;101033.50;;;20.31;100.00
38718;BME280;24468;52.128;9.278;2023-07-09T04:41:44;101044.03;;;20.49;100.00
38718;BME280;24468;52.128;9.278;2023-07-09T04:44:10;101040.84;;;20.55;100.00
38718;BME280;24468;52.128;9.278;2023-07-09T04:46:35;101039.84;;;20.56;100.00
38718;BME280;24468;52.128;9.278;2023-07-09T04:49:01;101036.25;;;20.67;100.00
38718;BME280;24468;52.128;9.278;2023-07-09T04:51:27;101044.13;;;20.71;100.00
38718;BME280;24468;52.128;9.278;2023-07-09T04:53:52;101036.28;;;21.00;100.00
38718;BME280;24468;52.128;9.278;2023-07-09T04:56:18;101042.69;;;21.01;100.00
38718;BME280;24468;52.128;9.278;2023-07-09T04:58:44;101043.81;;;21.09;100.00
38718;BME280;24468;52.128;9.278;2023-07-09T05:01:10;101035.94;;;20.94;100.00
38718;BME280;24468;52.128;9.278;2023-07-09T05:03:35;101043.56;;;21.01;100.00
38718;BME280;24468;52.128;9.278;2023-07-09T05:06:01;101046.81;;;21.06;100.00
38718;BME280;24468;52.128;9.278;2023-07-09T05:08:27;101040.06;;;21.22;100.00
38718;BME280;24468;52.128;9.278;2023-07-09T05:10:53;101034.81;;;21.19;100.00
38718;BME280;24468;52.128;9.278;2023-07-09T05:13:18;101036.44;;;21.21;100.00
38718;BME280;24468;52.128;9.278;2023-07-09T05:15:46;101034.19;;;21.26;100.00
38718;BME280;24468;52.128;9.278;2023-07-09T05:18:16;101030.34;;;21.29;100.00
38718;BME280;24468;52.128;9.278;2023-07-09T05:20:42;101035.56;;;21.54;100.00
38718;BME280;24468;52.128;9.278;2023-07-09T05:23:09;101022.69;;;21.66;100.00
38718;BME280;24468;52.128;9.278;2023-07-09T05:25:35;101034.31;;;21.70;100.00
38718;BME280;24468;52.128;9.278;2023-07-09T05:28:01;101024.47;;;21.67;100.00
38718;BME280;24468;52.128;9.278;2023-07-09T05:30:26;101041.28;;;21.74;100.00
38718;BME280;24468;52.128;9.278;2023-07-09T05:32:52;101031.75;;;21.89;100.00
38718;BME280;24468;52.128;9.278;2023-07-09T05:35:19;101033.09;;;21.51;100.00
38718;BME280;24468;52.128;9.278;2023-07-09T05:37:45;101036.41;;;21.66;100.00
38718;BME280;24468;52.128;9.278;2023-07-09T05:40:11;101035.56;;;21.66;100.00
38718;BME280;24468;52.128;9.278;2023-07-09T05:42:36;101035.63;;;21.87;100.00
38718;BME280;24468;52.128;9.278;2023-07-09T05:45:03;101038.31;;;22.09;100.00
38718;BME280;24468;52.128;9.278;2023-07-09T05:47:28;101032.16;;;22.28;100.00
38718;BME280;24468;52.128;9.278;2023-07-09T05:49:54;101031.63;;;22.34;100.00
38718;BME280;24468;52.128;9.278;2023-07-09T05:52:22;101031.63;;;22.55;100.00
38718;BME280;24468;52.128;9.278;2023-07-09T05:54:51;101025.88;;;22.58;100.00
38718;BME280;24468;52.128;9.278;2023-07-09T05:57:17;101032.44;;;22.88;100.00
38718;BME280;24468;52.128;9.278;2023-07-09T05:59:43;101028.78;;;23.08;100.00
38718;BME280;24468;52.128;9.278;2023-07-09T06:02:18;101031.72;;;23.17;100.00
38718;BME280;24468;52.128;9.278;2023-07-09T06:04:44;101033.91;;;23.13;100.00
38718;BME280;24468;52.128;9.278;2023-07-09T06:07:11;101029.91;;;22.96;100.00
38718;BME280;24468;52.128;9.278;2023-07-09T06:09:37;101039.53;;;22.70;100.00
38718;BME280;24468;52.128;9.278;2023-07-09T06:12:04;101034.84;;;23.02;100.00
38718;BME280;24468;52.128;9.278;2023-07-09T06:14:31;101032.28;;;23.11;100.00
38718;BME280;24468;52.128;9.278;2023-07-09T06:16:58;101035.31;;;23.38;100.00
38718;BME280;24468;52.128;9.278;2023-07-09T06:19:24;101037.13;;;23.68;100.00
38718;BME280;24468;52.128;9.278;2023-07-09T06:21:49;101034.53;;;23.67;100.00
38718;BME280;24468;52.128;9.278;2023-07-09T06:24:15;101039.84;;;23.89;100.00
38718;BME280;24468;52.128;9.278;2023-07-09T06:26:41;101037.69;;;24.03;100.00
38718;BME280;24468;52.128;9.278;2023-07-09T06:29:06;101040.31;;;24.14;100.00
38718;BME280;24468;52.128;9.278;2023-07-09T06:31:32;101050.56;;;23.92;100.00
38718;BME280;24468;52.128;9.278;2023-07-09T06:33:57;101044.31;;;23.81;100.00
38718;BME280;24468;52.128;9.278;2023-07-09T06:36:23;101040.84;;;24.08;100.00
38718;BME280;24468;52.128;9.278;2023-07-09T06:38:48;101037.78;;;23.91;100.00
38718;BME280;24468;52.128;9.278;2023-07-09T06:41:15;101043.22;;;24.41;100.00
38718;BME280;24468;52.128;9.278;2023-07-09T06:43:41;101045.22;;;24.30;100.00
38718;BME280;24468;52.128;9.278;2023-07-09T06:46:11;101047.44;;;24.46;100.00
38718;BME280;24468;52.128;9.278;2023-07-09T06:48:37;101054.06;;;24.04;100.00
38718;BME280;24468;52.128;9.278;2023-07-09T06:51:03;101053.19;;;24.04;100.00
38718;BME280;24468;52.128;9.278;2023-07-09T06:53:29;101052.16;;;23.85;100.00
38718;BME280;24468;52.128;9.278;2023-07-09T06:55:56;101048.72;;;24.03;100.00
38718;BME280;24468;52.128;9.278;2023-07-09T06:58:25;101044.66;;;24.26;100.00
38718;BME280;24468;52.128;9.278;2023-07-09T07:00:54;101041.91;;;24.36;100.00
38718;BME280;24468;52.128;9.278;2023-07-09T07:03:21;101045.94;;;24.80;100.00
38718;BME280;24468;52.128;9.278;2023-07-09T07:05:49;101037.53;;;24.82;100.00
38718;BME280;24468;52.128;9.278;2023-07-09T07:08:18;101040.44;;;24.71;100.00
38718;BME280;24468;52.128;9.278;2023-07-09T07:10:47;101041.91;;;24.75;100.00
38718;BME280;24468;52.128;9.278;2023-07-09T07:13:13;101046.09;;;24.89;100.00
38718;BME280;24468;52.128;9.278;2023-07-09T07:15:40;101042.22;;;25.09;100.00
38718;BME280;24468;52.128;9.278;2023-07-09T07:18:06;101033.16;;;24.89;98.87
38718;BME280;24468;52.128;9.278;2023-07-09T07:20:33;101037.16;;;25.24;99.92
38718;BME280;24468;52.128;9.278;2023-07-09T07:22:58;101033.66;;;25.22;99.82
38718;BME280;24468;52.128;9.278;2023-07-09T07:25:24;101033.84;;;25.01;99.94
38718;BME280;24468;52.128;9.278;2023-07-09T07:27:50;101027.94;;;25.61;99.56
38718;BME280;24468;52.128;9.278;2023-07-09T07:30:16;101029.47;;;26.01;95.36
38718;BME280;24468;52.128;9.278;2023-07-09T07:32:45;101025.75;;;26.10;94.90
38718;BME280;24468;52.128;9.278;2023-07-09T07:35:12;101019.06;;;26.12;96.14
38718;BME280;24468;52.128;9.278;2023-07-09T07:37:41;101020.41;;;26.44;94.52
38718;BME280;24468;52.128;9.278;2023-07-09T07:40:09;101026.00;;;26.34;94.61
38718;BME280;24468;52.128;9.278;2023-07-09T07:42:34;101019.38;;;26.63;91.69
38718;BME280;24468;52.128;9.278;2023-07-09T07:45:00;101016.91;;;26.42;91.10
38718;BME280;24468;52.128;9.278;2023-07-09T07:47:26;101022.44;;;26.24;91.62
38718;BME280;24468;52.128;9.278;2023-07-09T07:49:53;101025.91;;;26.80;89.24
38718;BME280;24468;52.128;9.278;2023-07-09T07:52:19;101020.91;;;27.10;85.63
38718;BME280;24468;52.128;9.278;2023-07-09T07:54:46;101029.16;;;27.01;83.56
38718;BME280;24468;52.128;9.278;2023-07-09T07:57:12;101022.84;;;27.17;83.82
38718;BME280;24468;52.128;9.278;2023-07-09T07:59:39;101025.34;;;27.02;83.80
38718;BME280;24468;52.128;9.278;2023-07-09T08:02:07;101012.91;;;27.33;82.57
38718;BME280;24468;52.128;9.278;2023-07-09T08:04:35;101027.88;;;27.48;81.35
38718;BME280;24468;52.128;9.278;2023-07-09T08:07:01;101018.41;;;27.67;80.76
38718;BME280;24468;52.128;9.278;2023-07-09T08:09:26;101012.78;;;27.50;80.00
38718;BME280;24468;52.128;9.278;2023-07-09T08:11:52;101014.25;;;27.63;79.33
38718;BME280;24468;52.128;9.278;2023-07-09T08:14:17;101019.13;;;27.77;79.73
38718;BME280;24468;52.128;9.278;2023-07-09T08:16:43;101024.28;;;28.06;77.99
38718;BME280;24468;52.128;9.278;2023-07-09T08:19:09;101019.75;;;28.13;77.39
38718;BME280;24468;52.128;9.278;2023-07-09T08:21:35;101009.72;;;28.37;77.19
38718;BME280;24468;52.128;9.278;2023-07-09T08:24:00;101014.75;;;28.17;77.56
38718;BME280;24468;52.128;9.278;2023-07-09T08:26:26;101019.63;;;28.23;75.96
38718;BME280;24468;52.128;9.278;2023-07-09T08:28:52;101006.28;;;28.51;75.74
38718;BME280;24468;52.128;9.278;2023-07-09T08:31:17;101007.44;;;28.16;76.90
38718;BME280;24468;52.128;9.278;2023-07-09T08:33:43;101013.72;;;28.26;77.38
38718;BME280;24468;52.128;9.278;2023-07-09T08:36:09;101005.56;;;28.74;75.50
38718;BME280;24468;52.128;9.278;2023-07-09T08:38:34;100998.09;;;28.99;75.22
38718;BME280;24468;52.128;9.278;2023-07-09T08:43:49;101006.63;;;28.65;70.10
38718;BME280;24468;52.128;9.278;2023-07-09T08:49:30;100991.84;;;28.97;72.40
38718;BME280;24468;52.128;9.278;2023-07-09T08:51:59;100992.91;;;28.55;73.97
38718;BME280;24468;52.128;9.278;2023-07-09T08:54:32;100992.00;;;28.95;74.15
38718;BME280;24468;52.128;9.278;2023-07-09T08:57:16;100990.38;;;29.25;70.12
38718;BME280;24468;52.128;9.278;2023-07-09T08:59:42;100994.41;;;29.62;70.21
38718;BME280;24468;52.128;9.278;2023-07-09T09:02:27;100991.25;;;29.74;69.53
38718;BME280;24468;52.128;9.278;2023-07-09T09:04:55;100996.81;;;29.74;71.25
38718;BME280;24468;52.128;9.278;2023-07-09T09:07:43;100990.13;;;29.83;68.21
38718;BME280;24468;52.128;9.278;2023-07-09T09:10:21;100994.63;;;30.15;69.52
38718;BME280;24468;52.128;9.278;2023-07-09T09:13:05;100990.16;;;30.06;68.91
38718;BME280;24468;52.128;9.278;2023-07-09T09:15:40;100988.16;;;29.91;69.96
38718;BME280;24468;52.128;9.278;2023-07-09T09:18:25;100984.25;;;30.32;68.27
38718;BME280;24468;52.128;9.278;2023-07-09T09:21:14;100985.81;;;30.72;65.05
38718;BME280;24468;52.128;9.278;2023-07-09T09:27:04;100974.81;;;30.94;64.73
38718;BME280;24468;52.128;9.278;2023-07-09T09:29:31;100973.84;;;31.16;66.10
38718;BME280;24468;52.128;9.278;2023-07-09T09:32:17;100974.97;;;30.40;68.32
38718;BME280;24468;52.128;9.278;2023-07-09T09:34:43;100978.84;;;31.06;65.90
38718;BME280;24468;52.128;9.278;2023-07-09T09:37:12;100985.19;;;31.15;64.91
38718;BME280;24468;52.128;9.278;2023-07-09T09:39:38;100988.22;;;31.43;64.09
38718;BME280;24468;52.128;9.278;2023-07-09T09:42:11;100979.63;;;31.44;63.30
38718;BME280;24468;52.128;9.278;2023-07-09T09:44:44;100984.13;;;31.45;62.94
38718;BME280;24468;52.128;9.278;2023-07-09T09:47:10;100980.38;;;31.23;65.16
38718;BME280;24468;52.128;9.278;2023-07-09T09:49:43;100982.31;;;30.55;66.14
38718;BME280;24468;52.128;9.278;2023-07-09T09:52:17;100980.28;;;30.26;67.33
38718;BME280;24468;52.128;9.278;2023-07-09T09:54:53;100985.81;;;30.49;67.34
38718;BME280;24468;52.128;9.278;2023-07-09T09:57:24;100986.63;;;31.26;63.63
38718;BME280;24468;52.128;9.278;2023-07-09T09:59:50;100984.34;;;31.44;61.89
38718;BME280;24468;52.128;9.278;2023-07-09T10:02:22;100989.41;;;31.26;61.03
38718;BME280;24468;52.128;9.278;2023-07-09T10:04:49;100985.44;;;31.79;59.67
38718;BME280;24468;52.128;9.278;2023-07-09T10:07:36;100984.69;;;32.07;58.34
38718;BME280;24468;52.128;9.278;2023-07-09T10:10:13;100989.81;;;32.03;57.04
38718;BME280;24468;52.128;9.278;2023-07-09T10:12:59;100990.59;;;32.40;54.59
38718;BME280;24468;52.128;9.278;2023-07-09T10:16:03;100990.28;;;32.07;55.11
38718;BME280;24468;52.128;9.278;2023-07-09T10:19:25;100989.28;;;31.93;56.31
38718;BME280;24468;52.128;9.278;2023-07-09T10:22:03;100992.69;;;32.31;55.45
38718;BME280;24468;52.128;9.278;2023-07-09T10:27:15;100975.38;;;32.00;55.93
38718;BME280;24468;52.128;9.278;2023-07-09T10:30:13;100977.91;;;31.80;55.74
38718;BME280;24468;52.128;9.278;2023-07-09T10:33:12;100978.66;;;32.03;56.26
38718;BME280;24468;52.128;9.278;2023-07-09T10:38:27;100980.56;;;32.24;53.49
38718;BME280;24468;52.128;9.278;2023-07-09T10:41:00;100979.78;;;32.09;53.07
38718;BME280;24468;52.128;9.278;2023-07-09T10:43:47;100976.34;;;32.78;51.88
38718;BME280;24468;52.128;9.278;2023-07-09T10:46:17;100970.50;;;33.01;51.46
38718;BME280;24468;52.128;9.278;2023-07-09T10:48:49;100973.97;;;33.03;50.10
38718;BME280;24468;52.128;9.278;2023-07-09T10:51:53;100969.78;;;32.92;48.80
38718;BME280;24468;52.128;9.278;2023-07-09T10:54:42;100975.44;;;33.34;46.99
38718;BME280;24468;52.128;9.278;2023-07-09T10:57:41;100980.69;;;32.87;43.37
38718;BME280;24468;52.128;9.278;2023-07-09T11:00:17;100972.44;;;33.42;43.80
38718;BME280;24468;52.128;9.278;2023-07-09T11:02:44;100975.09;;;33.15;43.78
38718;BME280;24468;52.128;9.278;2023-07-09T11:05:10;100968.63;;;33.50;41.76
38718;BME280;24468;52.128;9.278;2023-07-09T11:10:31;100966.84;;;33.01;39.80
38718;BME280;24468;52.128;9.278;2023-07-09T11:13:13;100965.59;;;33.51;40.81
38718;BME280;24468;52.128;9.278;2023-07-09T11:15:43;100964.75;;;33.09;38.78
38718;BME280;24468;52.128;9.278;2023-07-09T11:18:16;100958.22;;;33.85;39.45
38718;BME280;24468;52.128;9.278;2023-07-09T11:20:45;100962.66;;;33.59;37.65
38718;BME280;24468;52.128;9.278;2023-07-09T11:23:23;100953.28;;;33.94;37.82
38718;BME280;24468;52.128;9.278;2023-07-09T11:28:38;100947.59;;;34.62;37.47
38718;BME280;24468;52.128;9.278;2023-07-09T11:31:20;100943.47;;;34.51;37.24
38718;BME280;24468;52.128;9.278;2023-07-09T11:34:10;100936.78;;;34.79;37.18
38718;BME280;24468;52.128;9.278;2023-07-09T11:36:45;100934.41;;;34.82;38.10
38718;BME280;24468;52.128;9.278;2023-07-09T11:39:50;100927.31;;;34.46;37.56
38718;BME280;24468;52.128;9.278;2023-07-09T11:42:32;100927.03;;;35.01;36.92
38718;BME280;24468;52.128;9.278;2023-07-09T11:45:06;100927.31;;;34.66;37.89
38718;BME280;24468;52.128;9.278;2023-07-09T11:50:22;100926.66;;;34.84;38.53
38718;BME280;24468;52.128;9.278;2023-07-09T11:52:59;100926.28;;;35.32;38.81
38718;BME280;24468;52.128;9.278;2023-07-09T11:55:44;100919.88;;;35.18;39.18
38718;BME280;24468;52.128;9.278;2023-07-09T11:58:14;100928.81;;;34.89;38.84
38718;BME280;24468;52.128;9.278;2023-07-09T12:00:54;100924.88;;;35.03;39.07
38718;BME280;24468;52.128;9.278;2023-07-09T12:03:23;100928.69;;;35.35;38.34
38718;BME280;24468;52.128;9.278;2023-07-09T12:05:55;100929.69;;;35.48;37.36
38718;BME280;24468;52.128;9.278;2023-07-09T12:08:37;100926.78;;;35.16;37.42
38718;BME280;24468;52.128;9.278;2023-07-09T12:11:04;100916.38;;;35.81;38.08
38718;BME280;24468;52.128;9.278;2023-07-09T12:13:38;100919.34;;;35.87;38.77
38718;BME280;24468;52.128;9.278;2023-07-09T12:16:04;100912.06;;;35.79;37.65
38718;BME280;24468;52.128;9.278;2023-07-09T12:18:29;100921.09;;;35.88;37.85
38718;BME280;24468;52.128;9.278;2023-07-09T12:20:55;100908.41;;;35.78;38.99
38718;BME280;24468;52.128;9.278;2023-07-09T12:23:30;100911.97;;;35.92;38.25
38718;BME280;24468;52.128;9.278;2023-07-09T12:26:01;100909.53;;;36.02;38.61
38718;BME280;24468;52.128;9.278;2023-07-09T12:28:29;100900.94;;;36.29;38.55
38718;BME280;24468;52.128;9.278;2023-07-09T12:30:55;100909.31;;;36.04;38.19
38718;BME280;24468;52.128;9.278;2023-07-09T12:33:26;100915.63;;;35.93;38.85
38718;BME280;24468;52.128;9.278;2023-07-09T12:36:11;100909.97;;;35.68;38.80
38718;BME280;24468;52.128;9.278;2023-07-09T12:38:50;100901.09;;;35.71;38.71
38718;BME280;24468;52.128;9.278;2023-07-09T12:41:23;100888.53;;;35.35;39.17
38718;BME280;24468;52.128;9.278;2023-07-09T12:43:52;100884.31;;;35.19;40.75
38718;BME280;24468;52.128;9.278;2023-07-09T12:46:18;100879.81;;;35.11;41.93
38718;BME280;24468;52.128;9.278;2023-07-09T12:48:45;100871.75;;;35.28;42.15
38718;BME280;24468;52.128;9.278;2023-07-09T12:51:23;100867.13;;;35.85;41.49
38718;BME280;24468;52.128;9.278;2023-07-09T12:54:10;100860.75;;;35.65;41.76
38718;BME280;24468;52.128;9.278;2023-07-09T12:56:38;100860.66;;;35.47;41.77
38718;BME280;24468;52.128;9.278;2023-07-09T12:59:36;100849.16;;;35.87;42.33
38718;BME280;24468;52.128;9.278;2023-07-09T13:02:16;100856.34;;;35.82;42.57
38718;BME280;24468;52.128;9.278;2023-07-09T13:04:43;100840.16;;;35.78;41.69
38718;BME280;24468;52.128;9.278;2023-07-09T13:07:26;100849.81;;;35.89;42.33
38718;BME280;24468;52.128;9.278;2023-07-09T13:09:56;100838.47;;;36.02;41.28
38718;BME280;24468;52.128;9.278;2023-07-09T13:12:32;100842.34;;;36.01;41.55
38718;BME280;24468;52.128;9.278;2023-07-09T13:14:58;100843.09;;;35.90;42.27
38718;BME280;24468;52.128;9.278;2023-07-09T13:17:29;100833.25;;;36.31;41.06
38718;BME280;24468;52.128;9.278;2023-07-09T13:19:55;100830.41;;;36.37;40.68
38718;BME280;24468;52.128;9.278;2023-07-09T13:22:22;100828.22;;;36.14;41.10
38718;BME280;24468;52.128;9.278;2023-07-09T13:24:48;100822.44;;;36.59;40.92
38718;BME280;24468;52.128;9.278;2023-07-09T13:27:15;100820.00;;;36.81;40.05
38718;BME280;24468;52.128;9.278;2023-07-09T13:29:41;100822.56;;;36.83;40.27